EmailTwitter


Observations de surface / Québec / LFLS

Régions: Québec | Canada | États-Unis | Europe | France | UK | Ailleurs
Station
Affichage
Infos & localisation pour LFLS | Aide pour décoder les METARs

Observations prises le 2017-09-21 à 10H30 UTC à GRENOBLE/ST. GEO, FR (LFLS)

Température: 17.0 Celsius

Point de rosée: 7.0 Celsius

Humidité relative: 52%

Vents: Est-sud-est à 7 km/h ou 4 noeuds.

Pression au niveau moyen de la mer: 102.00 kilopascals.

Observation METAR:

LFLS 211030Z AUTO 11004KT 010V160 CAVOK 17/07 Q1020 NOSIG=